createdAt,value
2023-07-22T00:02:26.063Z,100353.22
2023-07-22T00:04:53.491Z,100355.03
2023-07-22T00:07:22.269Z,100352.22
2023-07-22T00:09:51.521Z,100359.91
2023-07-22T00:12:18.076Z,100356.56
2023-07-22T00:14:46.689Z,100352.59
2023-07-22T00:17:13.154Z,100358.22
2023-07-22T00:19:42.183Z,100356.19
2023-07-22T00:22:08.682Z,100362.00
2023-07-22T00:24:42.859Z,100359.50
2023-07-22T00:27:09.997Z,100358.69
2023-07-22T00:29:36.620Z,100363.16
2023-07-22T00:32:03.159Z,100359.13
2023-07-22T00:34:29.590Z,100356.47
2023-07-22T00:37:00.257Z,100348.81
2023-07-22T00:39:26.688Z,100339.34
2023-07-22T00:41:53.306Z,100335.69
2023-07-22T00:44:19.942Z,100339.03
2023-07-22T00:46:46.505Z,100343.19
2023-07-22T00:49:17.879Z,100337.53
2023-07-22T00:51:46.985Z,100342.66
2023-07-22T00:54:15.734Z,100342.00
2023-07-22T00:56:42.935Z,100335.31
2023-07-22T00:59:09.428Z,100343.13
2023-07-22T01:01:35.896Z,100344.16
2023-07-22T01:04:02.772Z,100337.50
2023-07-22T01:06:31.703Z,100339.78
2023-07-22T01:08:59.628Z,100340.72
2023-07-22T01:11:26.966Z,100343.84
2023-07-22T01:13:59.025Z,100345.31
2023-07-22T01:16:28.034Z,100341.50
2023-07-22T01:18:55.859Z,100349.91
2023-07-22T01:21:24.700Z,100351.06
2023-07-22T01:23:51.786Z,100352.22
2023-07-22T01:26:18.487Z,100347.56
2023-07-22T01:28:45.109Z,100344.41
2023-07-22T01:31:14.529Z,100341.59
2023-07-22T01:33:41.103Z,100336.28
2023-07-22T01:36:08.528Z,100335.94
2023-07-22T01:38:36.750Z,100342.41
2023-07-22T01:41:05.690Z,100341.91
2023-07-22T01:43:32.236Z,100347.22
2023-07-22T01:46:00.888Z,100339.41
2023-07-22T01:48:27.478Z,100342.06
2023-07-22T01:50:53.876Z,100345.88
2023-07-22T01:53:21.552Z,100340.56
2023-07-22T01:55:47.969Z,100337.75
2023-07-22T01:58:14.380Z,100332.28
2023-07-22T02:00:40.883Z,100334.59
2023-07-22T02:03:07.359Z,100336.28
2023-07-22T02:05:33.987Z,100326.94
2023-07-22T02:08:00.649Z,100331.59
2023-07-22T02:10:27.191Z,100330.59
2023-07-22T02:12:53.685Z,100330.75
2023-07-22T02:15:20.249Z,100333.25
2023-07-22T02:17:46.897Z,100334.09
2023-07-22T02:20:15.836Z,100335.84
2023-07-22T02:22:42.361Z,100336.88
2023-07-22T02:25:11.451Z,100330.53
2023-07-22T02:27:41.526Z,100335.34
2023-07-22T02:30:11.722Z,100333.13
2023-07-22T02:32:40.119Z,100334.97
2023-07-22T02:35:13.802Z,100332.00
2023-07-22T02:37:40.533Z,100344.59
2023-07-22T02:40:12.928Z,100347.97
2023-07-22T02:42:40.440Z,100355.78
2023-07-22T02:45:09.027Z,100361.75
2023-07-22T02:47:35.697Z,100376.88
2023-07-22T02:50:02.738Z,100380.88
2023-07-22T02:52:29.208Z,100391.53
2023-07-22T02:55:13.136Z,100410.94
2023-07-22T02:57:41.039Z,100421.28
2023-07-22T03:00:09.059Z,100424.94
2023-07-22T03:02:41.680Z,100432.69
2023-07-22T03:05:09.615Z,100436.66
2023-07-22T03:07:37.226Z,100443.34
2023-07-22T03:10:09.271Z,100425.97
2023-07-22T03:12:36.945Z,100420.28
2023-07-22T03:15:09.358Z,100408.97
2023-07-22T03:17:39.228Z,100415.94
2023-07-22T03:20:15.631Z,100411.53
2023-07-22T03:22:42.702Z,100404.38
2023-07-22T03:25:13.112Z,100403.69
2023-07-22T03:27:40.554Z,100394.91
2023-07-22T03:30:11.695Z,100384.78
2023-07-22T03:32:38.255Z,100375.75
2023-07-22T03:35:05.098Z,100362.06
2023-07-22T03:37:34.194Z,100370.97
2023-07-22T03:40:00.622Z,100375.47
2023-07-22T03:42:27.135Z,100374.81
2023-07-22T03:44:56.077Z,100376.47
2023-07-22T03:47:22.535Z,100359.94
2023-07-22T03:49:49.109Z,100363.50
2023-07-22T03:52:19.378Z,100354.72
2023-07-22T03:54:48.387Z,100369.25
2023-07-22T03:57:17.365Z,100364.84
2023-07-22T03:59:43.972Z,100371.00
2023-07-22T04:02:10.430Z,100380.47
2023-07-22T04:04:36.886Z,100379.34
2023-07-22T04:07:08.895Z,100380.84
2023-07-22T04:09:35.558Z,100382.41
2023-07-22T04:12:02.372Z,100391.94
2023-07-22T04:14:28.834Z,100380.31
2023-07-22T04:16:55.356Z,100378.13
2023-07-22T04:19:22.333Z,100379.22
2023-07-22T04:21:48.811Z,100382.31
2023-07-22T04:24:15.461Z,100392.41
2023-07-22T04:26:48.447Z,100381.47
2023-07-22T04:29:15.094Z,100388.22
2023-07-22T04:31:43.967Z,100396.94
2023-07-22T04:34:13.742Z,100388.28
2023-07-22T04:36:40.330Z,100379.63
2023-07-22T04:39:06.916Z,100372.34
2023-07-22T04:41:33.416Z,100372.34
2023-07-22T04:44:00.383Z,100375.38
2023-07-22T04:46:27.708Z,100379.34
2023-07-22T04:48:59.210Z,100377.66
2023-07-22T04:51:25.896Z,100379.34
2023-07-22T04:53:52.327Z,100379.34
2023-07-22T04:56:18.810Z,100382.09
2023-07-22T04:58:45.360Z,100372.06
2023-07-22T05:01:11.889Z,100380.00
2023-07-22T05:03:38.522Z,100385.47
2023-07-22T05:06:05.138Z,100391.94
2023-07-22T05:08:31.695Z,100391.78
2023-07-22T05:10:58.095Z,100402.53
2023-07-22T05:13:25.370Z,100402.53
2023-07-22T05:15:51.870Z,100400.56
2023-07-22T05:18:18.270Z,100405.19
2023-07-22T05:20:47.878Z,100406.19
2023-07-22T05:23:14.415Z,100400.88
2023-07-22T05:25:40.835Z,100397.22
2023-07-22T05:28:07.324Z,100403.06
2023-07-22T05:30:36.112Z,100405.56
2023-07-22T05:33:05.654Z,100408.63
2023-07-22T05:35:32.205Z,100396.03
2023-07-22T05:37:58.630Z,100399.38
2023-07-22T05:40:25.112Z,100394.06
2023-07-22T05:42:51.566Z,100398.16
2023-07-22T05:45:18.103Z,100406.34
2023-07-22T05:47:46.865Z,100416.81
2023-07-22T05:50:13.548Z,100411.34
2023-07-22T05:52:40.076Z,100419.13
2023-07-22T05:55:09.008Z,100412.47
2023-07-22T05:57:36.059Z,100409.03
2023-07-22T06:00:09.034Z,100414.88
2023-07-22T06:02:38.514Z,100411.94
2023-07-22T06:05:05.320Z,100406.31
2023-07-22T06:07:31.917Z,100407.81
2023-07-22T06:09:58.419Z,100417.75
2023-07-22T06:12:29.935Z,100406.81
2023-07-22T06:14:56.974Z,100403.16
2023-07-22T06:17:23.453Z,100396.94
2023-07-22T06:19:49.889Z,100387.34
2023-07-22T06:22:16.404Z,100411.34
2023-07-22T06:24:52.699Z,100416.34
2023-07-22T06:27:20.110Z,100419.03
2023-07-22T06:29:46.522Z,100418.34
2023-07-22T06:32:13.045Z,100422.41
2023-07-22T06:34:39.505Z,100419.56
2023-07-22T06:37:06.323Z,100422.41
2023-07-22T06:39:32.890Z,100421.25
2023-07-22T06:41:59.300Z,100432.72
2023-07-22T06:44:25.953Z,100434.06
2023-07-22T06:46:52.421Z,100426.28
2023-07-22T06:49:18.895Z,100436.16
2023-07-22T06:51:47.713Z,100428.94
2023-07-22T06:54:14.319Z,100438.25
2023-07-22T06:56:40.816Z,100435.00
2023-07-22T06:59:07.213Z,100431.75
2023-07-22T07:01:36.802Z,100436.47
2023-07-22T07:04:03.288Z,100436.53
2023-07-22T07:06:31.052Z,100423.53
2023-07-22T07:09:01.194Z,100417.28
2023-07-22T07:11:30.194Z,100425.31
2023-07-22T07:13:56.738Z,100419.63
2023-07-22T07:16:28.984Z,100428.13
2023-07-22T07:18:56.621Z,100426.00
2023-07-22T07:21:24.009Z,100432.31
2023-07-22T07:23:57.090Z,100433.97
2023-07-22T07:26:23.611Z,100431.63
2023-07-22T07:28:51.958Z,100435.97
2023-07-22T07:31:18.592Z,100431.16
2023-07-22T07:33:47.806Z,100430.31
2023-07-22T07:36:14.327Z,100431.31
2023-07-22T07:38:40.798Z,100419.47
2023-07-22T07:41:12.658Z,100433.31
2023-07-22T07:43:40.629Z,100421.31
2023-07-22T07:46:33.652Z,100417.50
2023-07-22T07:49:03.380Z,100427.00
2023-07-22T07:51:32.163Z,100431.28
2023-07-22T07:54:00.352Z,100431.47
2023-07-22T07:56:27.392Z,100423.97
2023-07-22T07:58:58.451Z,100436.97
2023-07-22T08:01:25.148Z,100424.63
2023-07-22T08:03:51.788Z,100427.97
2023-07-22T08:06:21.065Z,100431.63
2023-07-22T08:08:47.588Z,100427.94
2023-07-22T08:11:15.598Z,100434.94
2023-07-22T08:13:43.823Z,100432.94
2023-07-22T08:16:11.986Z,100436.59
2023-07-22T08:18:39.008Z,100422.94
2023-07-22T08:21:10.169Z,100418.56
2023-07-22T08:23:37.996Z,100420.59
2023-07-22T08:26:08.405Z,100422.56
2023-07-22T08:28:35.553Z,100405.56
2023-07-22T08:31:02.244Z,100415.88
2023-07-22T08:33:39.645Z,100415.53
2023-07-22T08:36:11.258Z,100431.69
2023-07-22T08:38:38.129Z,100415.47
2023-07-22T08:41:04.766Z,100414.06
2023-07-22T08:43:41.148Z,100411.50
2023-07-22T08:46:08.667Z,100408.97
2023-07-22T08:48:41.895Z,100398.81
2023-07-22T08:51:14.496Z,100379.25
2023-07-22T08:53:41.929Z,100381.63
2023-07-22T08:56:09.985Z,100389.28
2023-07-22T08:58:37.302Z,100379.69
2023-07-22T09:01:03.967Z,100384.28
2023-07-22T09:03:30.785Z,100361.22
2023-07-22T09:05:57.984Z,100359.34
2023-07-22T09:08:25.257Z,100376.53
2023-07-22T09:10:51.797Z,100377.19
2023-07-22T09:13:20.482Z,100348.75
2023-07-22T09:15:48.943Z,100350.03
2023-07-22T09:18:16.798Z,100356.09
2023-07-22T09:20:43.720Z,100336.28
2023-07-22T09:23:13.998Z,100353.06
2023-07-22T09:25:42.932Z,100313.03
2023-07-22T09:28:11.914Z,100322.75
2023-07-22T09:30:40.286Z,100322.19
2023-07-22T09:33:08.910Z,100326.53
2023-07-22T09:35:47.741Z,100326.94
2023-07-22T09:38:18.173Z,100295.88
2023-07-22T09:40:47.214Z,100306.59
2023-07-22T09:43:14.970Z,100313.09
2023-07-22T09:45:41.431Z,100296.00
2023-07-22T09:48:10.545Z,100309.06
2023-07-22T09:50:37.620Z,100290.47
2023-07-22T09:53:05.067Z,100277.19
2023-07-22T09:55:33.027Z,100301.56
2023-07-22T09:58:11.989Z,100277.75
2023-07-22T10:00:40.140Z,100285.56
2023-07-22T10:03:11.077Z,100275.97
2023-07-22T10:05:40.940Z,100277.56
2023-07-22T10:08:07.939Z,100259.66
2023-07-22T10:10:39.716Z,100263.69
2023-07-22T10:13:06.855Z,100268.66
2023-07-22T10:15:35.459Z,100268.94
2023-07-22T10:18:08.934Z,100247.66
2023-07-22T10:20:37.866Z,100243.72
2023-07-22T10:23:05.003Z,100243.88
2023-07-22T10:25:31.860Z,100241.00
2023-07-22T10:28:00.669Z,100245.47
2023-07-22T10:30:27.229Z,100234.28
2023-07-22T10:32:54.735Z,100212.88
2023-07-22T10:35:44.095Z,100228.16
2023-07-22T10:38:12.403Z,100231.72
2023-07-22T10:40:52.698Z,100231.13
2023-07-22T10:43:26.602Z,100195.44
2023-07-22T10:45:55.697Z,100221.75
2023-07-22T10:48:26.767Z,100215.53
2023-07-22T10:50:55.318Z,100219.00
2023-07-22T10:53:27.723Z,100214.81
2023-07-22T10:56:14.246Z,100219.66
2023-07-22T10:58:47.190Z,100229.25
2023-07-22T11:01:30.385Z,100228.28
2023-07-22T11:04:23.666Z,100226.81
2023-07-22T11:06:50.310Z,100223.34
2023-07-22T11:09:29.991Z,100219.69
2023-07-22T11:11:59.291Z,100213.59
2023-07-22T11:14:28.323Z,100224.50
2023-07-22T11:16:57.644Z,100217.00
2023-07-22T11:19:27.830Z,100209.75
2023-07-22T11:21:55.634Z,100211.78
2023-07-22T11:24:23.874Z,100227.59
2023-07-22T11:26:51.365Z,100208.22
2023-07-22T11:29:18.056Z,100201.88
2023-07-22T11:31:47.282Z,100195.44
2023-07-22T11:34:18.295Z,100200.44
2023-07-22T11:36:45.921Z,100180.19
2023-07-22T11:39:15.450Z,100185.22
2023-07-22T11:41:43.720Z,100177.47
2023-07-22T11:44:14.376Z,100184.78
2023-07-22T11:46:50.218Z,100175.38
2023-07-22T11:49:38.529Z,100178.50
2023-07-22T11:52:06.453Z,100178.25
2023-07-22T11:54:34.761Z,100183.44
2023-07-22T11:57:22.727Z,100183.19
2023-07-22T11:59:51.797Z,100179.84
2023-07-22T12:02:19.035Z,100190.41
2023-07-22T12:05:01.899Z,100180.66
2023-07-22T12:07:33.205Z,100166.91
2023-07-22T12:10:02.002Z,100164.91
2023-07-22T12:12:34.604Z,100165.09
2023-07-22T12:15:14.147Z,100165.31
2023-07-22T12:17:57.814Z,100169.22
2023-07-22T12:20:31.139Z,100150.72
2023-07-22T12:23:01.990Z,100145.47
2023-07-22T12:25:28.687Z,100150.38
2023-07-22T12:27:55.314Z,100140.66
2023-07-22T12:30:22.333Z,100150.25
2023-07-22T12:32:49.462Z,100154.13
2023-07-22T12:35:16.628Z,100159.19
2023-07-22T12:37:47.969Z,100145.22
2023-07-22T12:40:15.196Z,100149.91
2023-07-22T12:42:42.111Z,100142.91
2023-07-22T12:45:09.407Z,100145.81
2023-07-22T12:47:36.401Z,100134.53
2023-07-22T12:50:02.966Z,100131.56
2023-07-22T12:52:31.845Z,100134.06
2023-07-22T12:54:58.666Z,100127.38
2023-07-22T12:57:25.074Z,100111.94
2023-07-22T12:59:51.624Z,100109.81
2023-07-22T13:02:18.209Z,100116.13
2023-07-22T13:04:45.263Z,100109.72
2023-07-22T13:07:11.958Z,100117.88
2023-07-22T13:09:41.739Z,100098.59
2023-07-22T13:12:08.412Z,100096.53
2023-07-22T13:14:36.881Z,100109.97
2023-07-22T13:17:05.592Z,100106.47
2023-07-22T13:19:33.348Z,100109.38
2023-07-22T13:21:59.767Z,100113.56
2023-07-22T13:24:26.170Z,100108.06
2023-07-22T13:26:52.641Z,100087.75
2023-07-22T13:29:19.206Z,100089.19
2023-07-22T13:31:45.691Z,100090.69
2023-07-22T13:34:12.232Z,100081.66
2023-07-22T13:36:41.150Z,100101.69
2023-07-22T13:39:07.724Z,100085.44
2023-07-22T13:41:36.708Z,100097.91
2023-07-22T13:44:03.890Z,100082.28
2023-07-22T13:46:32.628Z,100089.91
2023-07-22T13:48:59.079Z,100095.13
2023-07-22T13:51:25.632Z,100100.47
2023-07-22T13:53:55.961Z,100081.56
2023-07-22T13:56:22.397Z,100070.81
2023-07-22T13:58:48.895Z,100088.81
2023-07-22T14:01:15.303Z,100083.19
2023-07-22T14:03:41.731Z,100073.34
2023-07-22T14:06:09.346Z,100065.47
2023-07-22T14:08:35.764Z,100066.03
2023-07-22T14:11:02.219Z,100061.25
2023-07-22T14:13:28.745Z,100064.91
2023-07-22T14:15:56.795Z,100059.97
2023-07-22T14:18:25.817Z,100060.84
2023-07-22T14:20:52.325Z,100053.78
2023-07-22T14:23:18.757Z,100054.03
2023-07-22T14:25:45.206Z,100057.78
2023-07-22T14:28:11.786Z,100048.38
2023-07-22T14:30:38.320Z,100037.09
2023-07-22T14:33:04.768Z,100053.31
2023-07-22T14:35:33.643Z,100046.84
2023-07-22T14:38:06.048Z,100052.50
2023-07-22T14:40:32.477Z,100050.38
2023-07-22T14:42:59.295Z,100050.50
2023-07-22T14:45:25.743Z,100053.66
2023-07-22T14:47:52.186Z,100041.09
2023-07-22T14:50:24.069Z,100040.75
2023-07-22T14:52:50.563Z,100048.97
2023-07-22T14:55:17.054Z,100039.44
2023-07-22T14:57:43.614Z,100043.94
2023-07-22T15:00:11.583Z,100033.53
2023-07-22T15:02:38.075Z,100034.25
2023-07-22T15:05:04.989Z,100038.03
2023-07-22T15:07:31.489Z,100038.13
2023-07-22T15:10:01.126Z,100035.75
2023-07-22T15:12:27.719Z,100031.63
2023-07-22T15:14:54.224Z,100032.78
2023-07-22T15:17:22.368Z,100025.47
2023-07-22T15:19:50.559Z,100040.06
2023-07-22T15:22:17.470Z,100029.63
2023-07-22T15:24:43.892Z,100035.03
2023-07-22T15:27:10.878Z,100044.75
2023-07-22T15:29:37.415Z,100031.72
2023-07-22T15:32:04.206Z,100040.19
2023-07-22T15:34:35.270Z,100031.72
2023-07-22T15:37:04.248Z,100029.03
2023-07-22T15:39:30.777Z,100034.91
2023-07-22T15:41:59.594Z,100037.00
2023-07-22T15:44:28.962Z,100015.09
2023-07-22T15:46:55.884Z,100031.66
2023-07-22T15:49:22.424Z,100034.19
2023-07-22T15:51:49.153Z,100031.44
2023-07-22T15:54:19.108Z,100037.28
2023-07-22T15:56:45.611Z,100032.72
2023-07-22T15:59:14.196Z,100033.59
2023-07-22T16:01:40.996Z,100034.16
2023-07-22T16:04:08.268Z,100033.84
2023-07-22T16:06:34.998Z,100029.72
2023-07-22T16:09:01.783Z,100029.50
2023-07-22T16:11:28.722Z,100031.00
2023-07-22T16:13:55.611Z,100035.56
2023-07-22T16:16:22.315Z,100032.94
2023-07-22T16:18:48.855Z,100040.59
2023-07-22T16:21:15.407Z,100029.81
2023-07-22T16:23:44.291Z,100024.84
2023-07-22T16:26:10.855Z,100030.25
2023-07-22T16:28:45.035Z,100007.47
2023-07-22T16:31:13.728Z,100014.97
2023-07-22T16:33:40.275Z,100016.72
2023-07-22T16:36:06.761Z,100011.38
2023-07-22T16:38:33.238Z,100017.69
2023-07-22T16:41:02.248Z,100019.41
2023-07-22T16:43:28.775Z,100020.44
2023-07-22T16:45:59.998Z,100010.94
2023-07-22T16:48:26.691Z,100015.81
2023-07-22T16:50:53.263Z,100010.03
2023-07-22T16:53:19.752Z,100018.72
2023-07-22T16:55:46.316Z,100016.75
2023-07-22T16:58:12.771Z,100020.09
2023-07-22T17:00:39.337Z,100016.34
2023-07-22T17:03:06.193Z,100024.63
2023-07-22T17:05:33.216Z,100019.59
2023-07-22T17:08:01.329Z,100015.91
2023-07-22T17:10:28.308Z,100013.66
2023-07-22T17:12:57.097Z,100020.13
2023-07-22T17:15:23.791Z,100002.31
2023-07-22T17:17:50.332Z,100010.94
2023-07-22T17:20:17.217Z,100002.91
2023-07-22T17:22:43.680Z,100011.41
2023-07-22T17:25:10.178Z,100027.84
2023-07-22T17:27:38.958Z,100020.94
2023-07-22T17:30:06.019Z,100021.19
2023-07-22T17:32:32.671Z,100013.56
2023-07-22T17:34:59.288Z,100018.09
2023-07-22T17:37:35.496Z,100016.31
2023-07-22T17:40:02.119Z,100007.63
2023-07-22T17:42:28.651Z,100005.75
2023-07-22T17:44:56.504Z,100008.88
2023-07-22T17:47:23.214Z,100008.69
2023-07-22T17:49:49.811Z,100001.72
2023-07-22T17:52:16.288Z,100007.94
2023-07-22T17:54:45.902Z,100003.03
2023-07-22T17:57:15.299Z,100008.03
2023-07-22T17:59:42.364Z,100006.78
2023-07-22T18:02:09.026Z,99995.25
2023-07-22T18:04:35.947Z,99994.88
2023-07-22T18:07:04.038Z,99994.06
2023-07-22T18:09:32.739Z,100001.53
2023-07-22T18:11:59.168Z,100002.13
2023-07-22T18:14:25.747Z,100007.94
2023-07-22T18:16:52.234Z,100008.34
2023-07-22T18:19:18.773Z,100004.88
2023-07-22T18:21:45.254Z,100007.16
2023-07-22T18:24:11.752Z,100007.41
2023-07-22T18:26:38.253Z,100004.53
2023-07-22T18:29:05.215Z,99999.56
2023-07-22T18:31:31.892Z,100000.44
2023-07-22T18:33:58.554Z,99995.50
2023-07-22T18:36:25.124Z,100007.91
2023-07-22T18:38:51.574Z,100008.28
2023-07-22T18:41:18.089Z,100003.53
2023-07-22T18:43:47.579Z,100008.09
2023-07-22T18:46:19.818Z,100014.91
2023-07-22T18:48:49.840Z,100017.16
2023-07-22T18:51:16.913Z,100010.56
2023-07-22T18:53:43.879Z,100010.13
2023-07-22T18:56:10.536Z,100014.03
2023-07-22T18:58:37.128Z,100010.47
2023-07-22T19:01:03.603Z,100022.63
2023-07-22T19:03:30.624Z,100008.56
2023-07-22T19:05:59.217Z,100015.16
2023-07-22T19:08:28.676Z,100013.31
2023-07-22T19:10:55.567Z,100026.28
2023-07-22T19:13:24.299Z,100016.75
2023-07-22T19:15:54.522Z,100020.69
2023-07-22T19:18:21.074Z,100018.19
2023-07-22T19:20:58.603Z,100020.66
2023-07-22T19:23:26.880Z,100021.69
2023-07-22T19:25:56.606Z,100022.47
2023-07-22T19:28:23.604Z,100035.25
2023-07-22T19:30:57.659Z,100034.75
2023-07-22T19:33:25.072Z,100039.06
2023-07-22T19:36:23.139Z,100044.16
2023-07-22T19:38:49.651Z,100045.34
2023-07-22T19:41:18.378Z,100042.16
2023-07-22T19:43:48.439Z,100039.06
2023-07-22T19:46:16.852Z,100041.03
2023-07-22T19:48:45.926Z,100048.84
2023-07-22T19:51:14.864Z,100046.13
2023-07-22T19:53:45.946Z,100053.28
2023-07-22T19:56:13.384Z,100059.22
2023-07-22T19:58:40.815Z,100048.25
2023-07-22T20:01:07.457Z,100056.03
2023-07-22T20:03:40.996Z,100052.72
2023-07-22T20:06:09.378Z,100051.84
2023-07-22T20:08:40.601Z,100050.38
2023-07-22T20:11:07.557Z,100042.28
2023-07-22T20:13:34.454Z,100054.00
2023-07-22T20:16:03.276Z,100051.25
2023-07-22T20:18:29.991Z,100056.50
2023-07-22T20:20:56.901Z,100053.59
2023-07-22T20:23:23.310Z,100059.63
2023-07-22T20:25:49.686Z,100066.94
2023-07-22T20:28:16.239Z,100071.75
2023-07-22T20:30:42.694Z,100063.66
2023-07-22T20:33:09.303Z,100068.53
2023-07-22T20:35:36.213Z,100072.78
2023-07-22T20:38:05.099Z,100067.00
2023-07-22T20:40:31.566Z,100070.59
2023-07-22T20:42:58.054Z,100080.81
2023-07-22T20:45:24.616Z,100079.16
2023-07-22T20:47:51.414Z,100084.59
2023-07-22T20:50:18.278Z,100086.97
2023-07-22T20:52:44.810Z,100089.19
2023-07-22T20:55:11.259Z,100084.09
2023-07-22T20:57:40.972Z,100090.84
2023-07-22T21:00:10.725Z,100093.03
2023-07-22T21:02:37.310Z,100085.59
2023-07-22T21:05:06.848Z,100086.31
2023-07-22T21:07:33.413Z,100090.72
2023-07-22T21:10:02.280Z,100085.72
2023-07-22T21:12:29.397Z,100092.63
2023-07-22T21:14:55.971Z,100089.31
2023-07-22T21:17:23.581Z,100084.16
2023-07-22T21:20:00.050Z,100083.16
2023-07-22T21:22:26.511Z,100083.97
2023-07-22T21:24:53.032Z,100086.47
2023-07-22T21:27:20.109Z,100092.16
2023-07-22T21:29:47.569Z,100089.69
2023-07-22T21:32:16.286Z,100082.88
2023-07-22T21:34:43.213Z,100079.84
2023-07-22T21:37:09.622Z,100083.34
2023-07-22T21:39:38.391Z,100084.34
2023-07-22T21:42:06.462Z,100078.19
2023-07-22T21:44:32.905Z,100079.84
2023-07-22T21:46:59.449Z,100083.50
2023-07-22T21:49:25.921Z,100083.34
2023-07-22T21:51:55.019Z,100085.19
2023-07-22T21:54:21.518Z,100083.50
2023-07-22T21:56:51.020Z,100077.53
2023-07-22T21:59:17.451Z,100077.34
2023-07-22T22:01:46.610Z,100087.19
2023-07-22T22:04:13.108Z,100083.88
2023-07-22T22:06:44.259Z,100085.22
2023-07-22T22:09:11.237Z,100094.81
2023-07-22T22:11:44.553Z,100081.63
2023-07-22T22:14:11.303Z,100088.81
2023-07-22T22:16:38.008Z,100089.88
2023-07-22T22:19:04.636Z,100094.47
2023-07-22T22:21:31.073Z,100086.13
2023-07-22T22:23:57.498Z,100086.00
2023-07-22T22:26:23.970Z,100083.53
2023-07-22T22:28:52.211Z,100083.25
2023-07-22T22:31:19.475Z,100088.25
2023-07-22T22:33:48.490Z,100093.94
2023-07-22T22:36:15.041Z,100086.97
2023-07-22T22:38:41.425Z,100089.63
2023-07-22T22:41:07.887Z,100080.44
2023-07-22T22:43:38.909Z,100084.09
2023-07-22T22:46:12.589Z,100089.44
2023-07-22T22:48:39.031Z,100079.59
2023-07-22T22:51:07.125Z,100074.28
2023-07-22T22:53:33.576Z,100082.91
2023-07-22T22:56:04.208Z,100088.25
2023-07-22T22:58:30.644Z,100093.41
2023-07-22T23:00:59.455Z,100083.75
2023-07-22T23:03:28.092Z,100093.41
2023-07-22T23:05:54.561Z,100088.91
2023-07-22T23:08:21.062Z,100094.25
2023-07-22T23:10:49.715Z,100094.25
2023-07-22T23:13:18.715Z,100083.56
2023-07-22T23:15:47.326Z,100084.94
2023-07-22T23:18:15.031Z,100083.94
2023-07-22T23:20:43.240Z,100085.66
2023-07-22T23:23:09.842Z,100082.81
2023-07-22T23:25:36.242Z,100086.72
2023-07-22T23:28:02.738Z,100092.75
2023-07-22T23:30:34.491Z,100092.59
2023-07-22T23:33:01.489Z,100083.84
2023-07-22T23:35:30.438Z,100089.53
2023-07-22T23:37:59.213Z,100091.03
2023-07-22T23:40:30.629Z,100091.59
2023-07-22T23:42:57.176Z,100093.25
2023-07-22T23:45:23.754Z,100080.59
2023-07-22T23:47:50.177Z,100088.91
2023-07-22T23:50:17.500Z,100082.25
2023-07-22T23:52:43.950Z,100080.84
2023-07-22T23:55:10.502Z,100085.22
2023-07-22T23:57:36.897Z,100081.94
